Duparquet, Canada
Current Conditions -  °F | °C
As of 9:28 AM on Thursday 29 Jan 2015 (Local Time) from CYUY Reporting Station
Light Snow Light Snow  
Wind Chill:   Ceiling: 1500
Heat Index: 16°   Visibility: 1.2mi
Dew Point: 12°   Wind: 9mph
Humidity: 86%   Direction: 170°S
Pressure: 29.86"   Gusts: 17mph
Location:  48.52°N, 79.22°W
Report Text: CYUY 291428Z 17008G15KT 1 1/4SM -SN OVC015 M09/M11 A2986 RMK SN4SC4 SLP136
Loading
Personal Weather Stations






























Interactive Weather Map New forecast layout! Learn more

10-Day Weather Forecast

Advertisements
Track Severe Weather on mobile